Time;durP1;ratioP1;P1;durP2;ratioP2;P2;SDS_P1;SDS_P2;PMS_P1;PMS_P2;Temp;Humidity;BMP_temperature;BMP_pressure;BME280_temperature;BME280_humidity;BME280_pressure;Samples;Min_cycle;Max_cycle;Signal;HPM_P1;HPM_P2
2022/11/22 00:02:00;;;;;;;15.80;7.60;;;;;;;1.32;98.73;99721.07;123514;1099;104392;-76
2022/11/22 00:04:31;;;;;;;16.67;7.77;;;;;;;1.30;98.57;99733.02;123413;1099;104325;-76
2022/11/22 00:07:02;;;;;;;16.57;7.60;;;;;;;1.30;98.38;99737.31;123468;1099;104277;-76
2022/11/22 00:09:33;;;;;;;18.40;7.90;;;;;;;1.28;98.24;99750.14;123409;1099;105504;-77
2022/11/22 00:12:05;;;;;;;16.90;8.43;;;;;;;1.27;98.77;99748.34;123412;1099;104268;-76
2022/11/22 00:14:36;;;;;;;18.87;8.10;;;;;;;1.29;98.40;99753.61;123428;1099;104368;-77
2022/11/22 00:17:07;;;;;;;17.80;8.03;;;;;;;1.29;98.62;99749.32;123380;1099;104252;-77
2022/11/22 00:19:39;;;;;;;17.40;7.97;;;;;;;1.30;98.88;99745.95;123349;1099;104351;-77
2022/11/22 00:22:10;;;;;;;20.43;9.43;;;;;;;1.32;98.98;99754.67;123538;1099;104325;-77
2022/11/22 00:24:42;;;;;;;19.20;9.77;;;;;;;1.36;98.99;99758.36;123459;1099;104258;-77
2022/11/22 00:27:13;;;;;;;19.80;9.00;;;;;;;1.38;99.01;99757.63;123484;1099;104507;-76
2022/11/22 00:29:45;;;;;;;18.73;8.93;;;;;;;1.40;99.04;99747.38;123387;1099;104347;-77
2022/11/22 00:32:16;;;;;;;18.80;8.30;;;;;;;1.42;98.66;99753.56;123435;1099;104280;-77
2022/11/22 00:34:47;;;;;;;19.10;8.83;;;;;;;1.40;98.87;99756.05;123433;1099;104245;-77
2022/11/22 00:37:18;;;;;;;18.50;8.63;;;;;;;1.39;98.56;99763.72;123520;1099;104270;-77
2022/11/22 00:39:49;;;;;;;17.87;8.83;;;;;;;1.38;98.19;99762.80;123445;1099;104712;-77
2022/11/22 00:42:21;;;;;;;17.40;8.23;;;;;;;1.36;98.89;99764.41;123503;1099;104316;-77
2022/11/22 00:44:52;;;;;;;20.60;9.50;;;;;;;1.36;98.45;99767.00;123468;1098;104347;-77
2022/11/22 00:47:23;;;;;;;21.00;9.90;;;;;;;1.37;98.55;99776.55;123531;1099;104287;-77
2022/11/22 00:49:54;;;;;;;20.97;9.87;;;;;;;1.36;97.95;99774.75;123463;1099;104300;-76
2022/11/22 00:52:25;;;;;;;24.53;11.03;;;;;;;1.36;98.61;99766.12;123443;1099;104223;-77
2022/11/22 00:54:56;;;;;;;24.80;11.07;;;;;;;1.36;99.20;99766.12;123411;1099;104303;-77
2022/11/22 00:57:27;;;;;;;24.00;11.67;;;;;;;1.35;98.87;99760.03;123509;1099;104240;-77
2022/11/22 00:59:58;;;;;;;25.33;12.33;;;;;;;1.32;98.97;99757.26;123376;1099;104270;-77
2022/11/22 01:02:29;;;;;;;25.53;12.90;;;;;;;1.29;98.78;99761.36;123508;1099;104273;-77
2022/11/22 01:05:00;;;;;;;26.37;13.30;;;;;;;1.25;98.43;99760.30;123508;1098;104227;-76
2022/11/22 01:07:32;;;;;;;24.97;12.53;;;;;;;1.22;98.67;99763.58;123415;1099;104306;-77
2022/11/22 01:10:03;;;;;;;27.03;12.37;;;;;;;1.21;98.76;99763.48;123471;1099;104280;-77
2022/11/22 01:12:34;;;;;;;26.90;12.97;;;;;;;1.18;98.43;99768.46;123393;1099;104370;-77
2022/11/22 01:15:07;;;;;;;27.53;13.10;;;;;;;1.14;98.40;99777.73;123416;1099;104256;-77
2022/11/22 01:17:40;;;;;;;26.57;12.67;;;;;;;1.09;98.51;99771.36;123560;1099;104351;-77
2022/11/22 01:20:13;;;;;;;24.33;12.60;;;;;;;1.05;98.83;99775.45;123409;1099;104340;-77
2022/11/22 01:22:44;;;;;;;25.37;12.07;;;;;;;1.03;98.71;99771.90;123619;1099;104680;-77
2022/11/22 01:25:15;;;;;;;25.60;12.65;;;;;;;0.99;98.76;99776.78;123438;1099;104274;-77
2022/11/22 01:27:46;;;;;;;22.45;10.75;;;;;;;0.96;98.63;99782.63;123465;1099;104274;-77
2022/11/22 01:30:19;;;;;;;23.20;11.17;;;;;;;0.92;98.63;99784.94;123452;1099;104400;-77
2022/11/22 01:32:51;;;;;;;24.13;11.43;;;;;;;0.88;98.80;99789.02;123502;1099;104333;-77
2022/11/22 01:35:22;;;;;;;24.47;11.40;;;;;;;0.85;98.96;99784.55;123467;1099;104654;-77
2022/11/22 01:37:53;;;;;;;24.80;11.50;;;;;;;0.85;98.98;99791.41;123467;1099;104261;-78
2022/11/22 01:40:24;;;;;;;24.53;11.80;;;;;;;0.84;98.94;99792.20;123485;1099;104274;-78
2022/11/22 01:42:58;;;;;;;22.00;10.83;;;;;;;0.79;98.46;99784.16;123636;1099;104406;-77
2022/11/22 01:45:48;;;;;;;23.52;11.48;;;;;;;0.76;98.67;99777.92;123484;1099;104248;-76
2022/11/22 01:48:32;;;;;;;26.23;13.50;;;;;;;0.76;98.04;99788.25;123503;1099;104320;-77
2022/11/22 01:51:06;;;;;;;24.97;12.70;;;;;;;0.76;98.97;99793.41;123388;1099;104223;-77
2022/11/22 01:53:39;;;;;;;26.03;12.47;;;;;;;0.71;99.20;99791.42;123605;1099;104226;-77
2022/11/22 01:56:13;;;;;;;23.50;11.43;;;;;;;0.69;98.86;99799.89;123477;1099;104249;-78
2022/11/22 01:58:48;;;;;;;24.10;11.80;;;;;;;0.65;98.70;99791.03;123483;1099;104241;-77
2022/11/22 02:01:19;;;;;;;24.10;11.50;;;;;;;0.61;98.76;99789.07;123574;1099;105469;-77
2022/11/22 02:03:52;;;;;;;24.93;12.57;;;;;;;0.59;98.91;99789.76;123524;1099;104274;-77
2022/11/22 02:06:26;;;;;;;24.23;11.67;;;;;;;0.55;98.76;99791.27;123545;1099;104232;-77
2022/11/22 02:09:02;;;;;;;24.50;11.53;;;;;;;0.52;98.83;99793.64;123465;1099;104367;-78
2022/11/22 02:11:36;;;;;;;25.67;12.60;;;;;;;0.49;99.04;99801.19;123473;1099;104206;-78
2022/11/22 02:14:09;;;;;;;25.00;11.75;;;;;;;0.47;99.09;99800.21;123495;1099;104220;-77
2022/11/22 02:16:42;;;;;;;26.60;13.45;;;;;;;0.48;98.67;99807.14;123448;1099;104251;-78
2022/11/22 02:19:19;;;;;;;29.30;14.30;;;;;;;0.47;99.18;99807.95;123560;1099;104271;-77
2022/11/22 02:21:55;;;;;;;27.63;13.70;;;;;;;0.49;99.21;99816.68;123507;1099;104395;-77
2022/11/22 02:24:31;;;;;;;27.03;13.60;;;;;;;0.45;98.52;99810.44;123488;1099;104271;-78
2022/11/22 02:27:02;;;;;;;31.05;14.35;;;;;;;0.43;98.74;99813.70;123556;1099;104194;-76
2022/11/22 02:29:35;;;;;;;27.60;13.63;;;;;;;0.41;98.84;99818.77;123532;1099;104201;-78
2022/11/22 02:32:06;;;;;;;25.33;12.30;;;;;;;0.40;99.15;99821.24;123544;1099;104274;-77
2022/11/22 02:34:45;;;;;;;24.87;11.97;;;;;;;0.37;98.77;99815.88;123471;1099;104293;-77
2022/11/22 02:37:21;;;;;;;24.87;12.23;;;;;;;0.34;98.94;99817.48;123526;1099;104319;-77
2022/11/22 02:39:57;;;;;;;24.03;12.47;;;;;;;0.32;99.18;99808.72;123469;1099;104749;-77
2022/11/22 02:42:31;;;;;;;25.83;12.57;;;;;;;0.30;99.40;99812.91;123629;1099;104351;-76
2022/11/22 02:45:00;;;;;;;;;;;;;;;0.27;99.54;99812.70;123547;1099;104267;-77
2022/11/22 02:47:31;;;;;;;25.77;11.87;;;;;;;0.24;99.51;99815.08;123549;1099;104373;-77
2022/11/22 02:50:03;;;;;;;25.03;11.87;;;;;;;0.24;99.42;99817.66;123410;1099;104299;-77
2022/11/22 02:52:34;;;;;;;26.63;12.63;;;;;;;0.22;99.12;99816.67;123458;1099;104194;-77
2022/11/22 02:55:06;;;;;;;24.73;11.90;;;;;;;0.21;98.73;99820.04;123411;1099;104277;-77
2022/11/22 02:57:37;;;;;;;25.50;12.10;;;;;;;0.20;98.75;99818.24;123636;1099;104673;-77
2022/11/22 03:00:11;;;;;;;27.87;12.77;;;;;;;0.20;99.54;99822.52;123499;1099;104332;-77
2022/11/22 03:02:42;;;;;;;26.30;13.05;;;;;;;0.17;99.09;99821.53;123604;1099;104227;-78
2022/11/22 03:05:13;;;;;;;25.03;12.93;;;;;;;0.17;99.62;99810.30;123529;1099;104353;-77
2022/11/22 03:07:45;;;;;;;26.80;13.17;;;;;;;0.17;98.75;99815.45;123517;1099;104245;-77
2022/11/22 03:10:16;;;;;;;27.40;13.80;;;;;;;0.16;99.06;99813.69;123583;1099;104249;-77
2022/11/22 03:12:47;;;;;;;29.45;14.00;;;;;;;0.15;99.12;99801.58;123504;1099;104348;-78
2022/11/22 03:15:18;;;;;;;29.40;14.27;;;;;;;0.12;98.75;99801.37;123471;1099;104226;-77
2022/11/22 03:17:49;;;;;;;26.47;13.13;;;;;;;0.11;99.34;99807.31;123507;1099;104271;-78
2022/11/22 03:20:20;;;;;;;25.20;12.23;;;;;;;0.10;99.03;99805.55;123596;1099;104224;-78
2022/11/22 03:22:51;;;;;;;27.13;13.60;;;;;;;0.07;98.76;99805.34;123511;1099;104280;-77
2022/11/22 03:25:23;;;;;;;27.80;14.13;;;;;;;0.05;99.36;99804.33;123588;1102;104347;-78
2022/11/22 03:27:54;;;;;;;26.70;13.67;;;;;;;0.04;99.50;99810.30;123477;1099;104347;-77
2022/11/22 03:30:25;;;;;;;26.93;13.23;;;;;;;0.03;99.12;99803.34;123578;1099;104267;-77
2022/11/22 03:32:57;;;;;;;29.13;14.33;;;;;;;0.02;98.87;99810.20;123596;1099;104241;-77
2022/11/22 03:35:28;;;;;;;26.00;13.20;;;;;;;0.01;99.40;99812.67;123437;1099;104245;-77
2022/11/22 03:37:59;;;;;;;33.27;16.03;;;;;;;-0.01;99.05;99805.72;123577;1099;104883;-77
2022/11/22 03:40:30;;;;;;;27.13;13.43;;;;;;;-0.03;98.64;99809.89;123568;1099;104307;-77
2022/11/22 03:43:02;;;;;;;31.30;15.33;;;;;;;-0.05;98.96;99819.22;123624;1099;104226;-77
2022/11/22 03:45:34;;;;;;;30.87;14.77;;;;;;;-0.06;99.41;99825.16;123572;1098;104242;-77
2022/11/22 03:48:05;;;;;;;29.97;14.97;;;;;;;-0.08;98.98;99843.89;123541;1099;104242;-77
2022/11/22 03:50:36;;;;;;;29.57;13.90;;;;;;;-0.08;99.18;99849.05;123554;1099;104242;-77
2022/11/22 03:53:07;;;;;;;29.53;14.17;;;;;;;-0.09;99.04;99844.70;123448;1099;104271;-78
2022/11/22 03:55:39;;;;;;;28.43;14.27;;;;;;;-0.11;98.88;99849.76;123498;1099;104721;-77
2022/11/22 03:58:10;;;;;;;31.13;14.73;;;;;;;-0.11;99.45;99854.92;123573;1102;104316;-78
2022/11/22 04:00:42;;;;;;;28.60;13.53;;;;;;;-0.12;98.88;99852.23;123571;1099;104255;-78
2022/11/22 04:03:13;;;;;;;30.80;14.97;;;;;;;-0.13;98.69;99865.91;123483;1099;104255;-77
2022/11/22 04:05:44;;;;;;;30.83;14.67;;;;;;;-0.15;98.97;99865.80;123274;1099;104268;-77
2022/11/22 04:08:15;;;;;;;29.27;14.67;;;;;;;-0.15;98.89;99873.55;123395;1099;104345;-76
2022/11/22 04:10:48;;;;;;;32.70;15.10;;;;;;;-0.14;99.52;99869.27;123202;1099;104272;-77
2022/11/22 04:13:19;;;;;;;30.33;14.73;;;;;;;-0.15;99.12;99870.96;123230;1099;104242;-76
2022/11/22 04:15:50;;;;;;;30.33;14.63;;;;;;;-0.16;99.69;99869.16;123151;1099;104249;-76
2022/11/22 04:18:21;;;;;;;30.47;14.30;;;;;;;-0.16;98.87;99878.59;123322;1099;104281;-75
2022/11/22 04:25:12;;;;;;;30.40;14.73;;;;;;;-0.16;99.52;99873.44;123292;1099;104290;-75
2022/11/22 04:26:32;;;;;;;30.43;14.20;;;;;;;-0.17;99.26;99867.39;123511;1099;104242;-75
2022/11/22 04:29:04;;;;;;;27.67;13.00;;;;;;;-0.23;99.12;99856.66;123447;1099;104243;-75
2022/11/22 04:34:24;;;;;;;29.40;13.20;;;;;;;-0.28;99.41;99866.66;123651;1099;104251;-75
2022/11/22 04:36:55;;;;;;;30.60;14.87;;;;;;;-0.30;99.26;99872.48;123556;1098;104345;-75
2022/11/22 04:39:26;;;;;;;30.40;14.70;;;;;;;-0.28;99.07;99887.29;123426;1099;104333;-75
2022/11/22 04:44:47;;;;;;;34.27;16.43;;;;;;;-0.26;99.37;99890.86;123404;1100;104269;-75
2022/11/22 04:52:52;;;;;;;36.77;17.30;;;;;;;-0.26;99.23;99902.86;123324;1099;104264;-75
2022/11/22 04:52:58;;;;;;;37.70;17.63;;;;;;;-0.25;99.74;99908.13;123528;1099;104284;-75
2022/11/22 04:55:29;;;;;;;33.67;16.93;;;;;;;-0.25;99.67;99900.39;123442;1099;104508;-75
2022/11/22 04:58:00;;;;;;;33.23;16.33;;;;;;;-0.27;99.62;99908.80;123391;1099;104241;-75
2022/11/22 05:00:32;;;;;;;32.07;15.70;;;;;;;-0.31;99.11;99905.12;123431;1099;104255;-75
2022/11/22 05:03:04;;;;;;;32.90;15.20;;;;;;;-0.34;99.07;99914.30;123261;1102;104405;-75
2022/11/22 05:05:39;;;;;;;33.00;15.13;;;;;;;-0.36;98.99;99909.05;123659;1099;104715;-75
2022/11/22 05:08:11;;;;;;;30.43;14.93;;;;;;;-0.39;99.83;99902.02;123529;1099;104446;-75
2022/11/22 05:10:58;;;;;;;32.90;15.50;;;;;;;-0.41;99.59;99900.98;123470;1099;104262;-75
2022/11/22 05:13:32;;;;;;;31.13;14.40;;;;;;;-0.41;99.22;99894.95;123382;1099;104321;-75
2022/11/22 05:16:05;;;;;;;30.80;15.37;;;;;;;-0.44;99.46;99890.47;123329;1099;104252;-75
2022/11/22 05:18:36;;;;;;;29.63;14.80;;;;;;;-0.47;98.91;99895.41;123582;1099;104422;-75
2022/11/22 05:21:09;;;;;;;33.87;15.77;;;;;;;-0.48;98.95;99896.22;123548;1099;104242;-75
2022/11/22 05:23:56;;;;;;;37.80;17.27;;;;;;;-0.48;99.09;99898.80;123583;1099;104261;-75
2022/11/22 05:26:29;;;;;;;40.20;19.40;;;;;;;-0.47;99.90;99900.56;123634;1099;104172;-75
2022/11/22 05:29:03;;;;;;;36.60;16.03;;;;;;;-0.44;99.46;99905.93;123493;1102;104329;-75
2022/11/22 05:31:37;;;;;;;31.23;15.70;;;;;;;-0.46;99.37;99906.63;123648;1099;104351;-75
2022/11/22 05:34:08;;;;;;;31.53;14.43;;;;;;;-0.48;99.53;99908.19;123478;1099;104303;-75
2022/11/22 05:36:39;;;;;;;32.80;15.55;;;;;;;-0.47;99.32;99921.19;123337;1099;104293;-75
2022/11/22 05:39:10;;;;;;;39.93;18.47;;;;;;;-0.49;99.35;99909.87;123279;1102;104246;-75
2022/11/22 05:41:54;;;;;;;39.33;19.73;;;;;;;-0.46;99.73;99919.52;123265;1099;104290;-75
2022/11/22 05:44:25;;;;;;;41.93;18.97;;;;;;;-0.40;99.44;99917.37;123407;1099;104242;-75
2022/11/22 05:46:57;;;;;;;38.53;16.67;;;;;;;-0.36;100.00;99934.83;123622;1102;118588;-75
2022/11/22 05:49:28;;;;;;;37.83;16.20;;;;;;;-0.39;99.17;99934.61;123450;1099;104348;-76
2022/11/22 05:51:59;;;;;;;38.93;16.93;;;;;;;-0.39;99.25;99940.69;123607;1099;104239;-77
2022/11/22 05:54:31;;;;;;;30.83;14.63;;;;;;;-0.38;99.40;99939.87;123837;1099;104242;-76
2022/11/22 05:57:02;;;;;;;29.53;13.37;;;;;;;-0.36;99.60;99945.13;123617;1099;104242;-76
2022/11/22 05:59:33;;;;;;;31.80;15.60;;;;;;;-0.34;99.95;99942.67;123603;1099;104345;-75
2022/11/22 06:02:04;;;;;;;34.07;15.60;;;;;;;-0.30;99.48;99950.72;123698;1099;104278;-76
2022/11/22 06:04:36;;;;;;;32.47;15.23;;;;;;;-0.26;99.62;99947.58;123793;1099;104255;-77
2022/11/22 06:07:07;;;;;;;33.50;15.53;;;;;;;-0.25;99.67;99958.78;124070;1099;104288;-77
2022/11/22 06:09:38;;;;;;;32.30;16.00;;;;;;;-0.23;99.75;99962.38;124459;1099;104364;-79
2022/11/22 06:12:10;;;;;;;30.23;14.37;;;;;;;-0.22;99.14;99965.07;124590;1099;104407;-76
2022/11/22 06:14:41;;;;;;;30.83;14.97;;;;;;;-0.16;99.26;99958.54;124305;1099;104185;-75
2022/11/22 06:17:19;;;;;;;31.07;15.40;;;;;;;-0.12;99.28;99950.23;124565;1099;104207;-76
2022/11/22 06:19:52;;;;;;;30.93;14.97;;;;;;;-0.07;99.12;99959.17;124629;1099;104102;-75
2022/11/22 06:22:23;;;;;;;32.10;15.33;;;;;;;-0.06;99.42;99963.56;124495;1099;103820;-76
2022/11/22 06:24:55;;;;;;;28.53;13.93;;;;;;;-0.05;98.93;99973.98;124234;1099;104202;-75
2022/11/22 06:27:26;;;;;;;34.50;15.77;;;;;;;0.02;99.33;99984.69;124103;1099;104210;-74
2022/11/22 06:29:57;;;;;;;31.67;15.03;;;;;;;0.07;98.77;99978.19;124484;1099;102984;-75
2022/11/22 06:32:31;;;;;;;33.80;16.70;;;;;;;0.11;98.91;99983.67;124296;1099;104274;-76
2022/11/22 06:35:03;;;;;;;34.23;16.37;;;;;;;0.17;98.80;99988.33;124457;1099;104248;-75
2022/11/22 06:37:34;;;;;;;31.67;14.27;;;;;;;0.23;99.13;99987.87;124148;1102;104198;-75
2022/11/22 06:40:10;;;;;;;33.33;15.60;;;;;;;0.29;98.47;99991.75;124494;1099;104047;-75
2022/11/22 06:42:42;;;;;;;32.03;15.17;;;;;;;0.35;98.94;99987.01;126139;1099;102989;-75
2022/11/22 06:45:16;;;;;;;33.50;16.57;;;;;;;0.40;98.30;99991.60;126115;1099;102710;-75
2022/11/22 06:47:48;;;;;;;29.77;13.87;;;;;;;0.46;98.87;99994.60;124541;1099;104271;-76
2022/11/22 06:50:20;;;;;;;28.50;13.37;;;;;;;0.51;97.95;99998.38;124434;1099;104210;-76
2022/11/22 06:52:57;;;;;;;32.83;14.77;;;;;;;0.53;98.23;99999.37;124433;1103;104246;-77
2022/11/22 06:55:29;;;;;;;27.90;13.50;;;;;;;0.56;98.16;100006.44;124386;1100;104227;-76
2022/11/22 06:58:00;;;;;;;27.07;13.20;;;;;;;0.56;98.63;100004.73;124514;1099;104237;-76
2022/11/22 07:00:32;;;;;;;30.80;15.03;;;;;;;0.60;98.31;100009.33;124646;1099;102077;-77
2022/11/22 07:03:03;;;;;;;30.83;15.17;;;;;;;0.63;98.11;100004.38;124600;1102;102430;-75
2022/11/22 07:05:35;;;;;;;33.97;16.60;;;;;;;0.69;98.60;100003.90;124313;1099;102941;-75
2022/11/22 07:08:07;;;;;;;30.07;15.87;;;;;;;0.78;98.63;100008.76;124547;1098;102133;-75
2022/11/22 07:10:40;;;;;;;28.60;14.20;;;;;;;0.82;98.33;100008.19;124682;1099;104172;-76
2022/11/22 07:13:12;;;;;;;29.93;14.57;;;;;;;0.83;98.03;100012.57;124574;1100;104340;-77
2022/11/22 07:15:43;;;;;;;31.23;15.60;;;;;;;0.84;97.95;100001.42;124437;1099;104346;-76
2022/11/22 07:18:17;;;;;;;29.77;14.90;;;;;;;0.88;98.17;100006.89;124476;1099;104290;-76
2022/11/22 07:21:03;;;;;;;30.00;15.00;;;;;;;0.92;97.62;100001.93;124412;1099;104271;-77
2022/11/22 07:23:35;;;;;;;32.23;15.33;;;;;;;1.00;97.92;100001.66;126141;1098;101895;-76
2022/11/22 07:26:07;;;;;;;;;;;;;;;1.05;97.89;99994.20;125597;1099;103942;-78
2022/11/22 07:28:39;;;;;;;30.80;14.87;;;;;;;1.11;97.65;99992.02;125191;1099;102503;-78
2022/11/22 07:31:14;;;;;;;31.13;14.83;;;;;;;1.16;98.25;100000.95;124718;1102;104172;-77
2022/11/22 07:36:47;;;;;;;28.03;13.87;;;;;;;1.22;97.97;100003.05;125879;1096;102911;-73
2022/11/22 07:39:18;;;;;;;29.03;14.73;;;;;;;1.25;97.90;100009.31;125611;1105;102320;-75
2022/11/22 07:41:57;;;;;;;31.07;15.70;;;;;;;1.30;97.19;100014.78;125527;1104;103511;-75
2022/11/22 07:44:41;;;;;;;33.93;16.67;;;;;;;1.35;97.47;100015.08;126190;1096;103074;-75
2022/11/22 07:47:13;;;;;;;29.70;15.80;;;;;;;1.38;97.15;100008.41;126365;1095;101833;-75
2022/11/22 07:49:47;;;;;;;31.00;15.40;;;;;;;1.42;97.69;100000.05;125153;1105;111070;-76
2022/11/22 07:52:19;;;;;;;33.85;17.40;;;;;;;1.53;98.32;100005.03;124821;1105;103071;-75
2022/11/22 07:54:53;;;;;;;35.30;15.90;;;;;;;1.63;98.11;100009.09;124628;1105;104470;-75
2022/11/22 07:57:31;;;;;;;33.87;16.73;;;;;;;1.72;98.29;100013.14;125461;1105;102057;-75
2022/11/22 08:00:11;;;;;;;28.70;15.20;;;;;;;1.80;97.88;100018.80;124894;1105;104363;-76
2022/11/22 08:02:43;;;;;;;35.47;17.50;;;;;;;1.76;96.97;100009.96;125976;1105;102444;-76
2022/11/22 08:05:17;;;;;;;30.48;16.62;;;;;;;1.74;97.34;100008.06;125771;1105;102825;-75
2022/11/22 08:07:54;;;;;;;37.00;17.13;;;;;;;1.76;97.14;100015.13;125728;1105;104006;-76
2022/11/22 08:10:28;;;;;;;32.17;17.23;;;;;;;1.82;97.50;100003.37;125792;1105;107757;-75
2022/11/22 08:13:06;;;;;;;33.47;17.60;;;;;;;1.93;98.40;100012.69;125736;1105;102255;-75
2022/11/22 08:15:38;;;;;;;33.30;16.67;;;;;;;1.97;97.94;100007.80;125698;1105;102744;-75
2022/11/22 08:18:10;;;;;;;34.13;17.70;;;;;;;1.91;96.83;100010.00;125694;1105;102010;-75
2022/11/22 08:20:43;;;;;;;35.00;17.57;;;;;;;1.82;96.48;100009.43;125701;1105;117980;-75
2022/11/22 08:23:17;;;;;;;34.60;17.87;;;;;;;1.74;96.72;100016.70;125670;1105;102083;-73
2022/11/22 08:25:52;;;;;;;32.60;16.87;;;;;;;1.76;97.50;100020.30;125023;1105;104300;-76
2022/11/22 08:28:26;;;;;;;33.37;17.07;;;;;;;1.78;97.77;100021.28;124380;1105;105586;-75
2022/11/22 08:31:13;;;;;;;35.07;18.10;;;;;;;1.90;97.59;100028.02;125146;1105;102309;-75
2022/11/22 08:33:46;;;;;;;35.93;17.67;;;;;;;1.96;97.56;100030.98;124255;1105;105096;-75
2022/11/22 08:36:18;;;;;;;30.57;15.53;;;;;;;2.04;97.90;100037.56;124156;1105;102814;-74
2022/11/22 08:38:56;;;;;;;31.70;17.07;;;;;;;2.08;97.28;100028.28;124311;1105;103884;-75
2022/11/22 08:41:28;;;;;;;33.57;17.07;;;;;;;2.17;97.35;100028.85;124395;1105;104347;-75
2022/11/22 08:44:05;;;;;;;30.90;16.25;;;;;;;2.24;97.24;100025.82;124309;1105;102548;-75
2022/11/22 08:46:37;;;;;;;37.80;17.45;;;;;;;2.24;97.24;100022.34;124376;1105;103815;-75
2022/11/22 08:49:10;;;;;;;28.00;14.13;;;;;;;2.26;97.13;100024.24;124708;1105;102821;-78
2022/11/22 08:52:02;;;;;;;31.07;16.70;;;;;;;2.10;96.26;100016.32;124679;1105;103255;-75
2022/11/22 08:54:41;;;;;;;30.35;15.58;;;;;;;2.08;96.09;100030.87;124385;1108;102774;-76
2022/11/22 08:57:22;;;;;;;34.07;18.00;;;;;;;2.00;96.33;100026.92;125052;1105;104131;-76
2022/11/22 08:59:55;;;;;;;34.57;19.40;;;;;;;2.02;96.15;100028.78;125068;1105;104254;-77
2022/11/22 09:02:29;;;;;;;34.77;18.60;;;;;;;2.12;97.43;100027.66;125184;1106;104278;-78
2022/11/22 09:05:05;;;;;;;34.20;18.40;;;;;;;2.18;97.05;100022.86;124894;1105;104246;-77
2022/11/22 09:07:38;;;;;;;36.33;19.17;;;;;;;2.31;97.67;100019.34;125060;1105;102295;-74
2022/11/22 09:10:13;;;;;;;37.47;19.67;;;;;;;2.42;97.62;100020.00;124546;1105;103107;-74
2022/11/22 09:12:52;;;;;;;33.90;17.83;;;;;;;2.50;96.79;100021.34;124424;1105;104281;-75
2022/11/22 09:15:24;;;;;;;35.87;19.40;;;;;;;2.52;97.28;100022.31;124402;1105;104268;-75
2022/11/22 09:18:07;;;;;;;34.93;18.47;;;;;;;2.60;96.89;100027.95;125049;1105;104296;-76
2022/11/22 09:20:43;;;;;;;38.53;19.00;;;;;;;2.68;96.69;100025.03;125214;1105;102461;-76
2022/11/22 09:23:19;;;;;;;33.67;18.40;;;;;;;2.78;96.70;100012.63;124908;1105;104367;-75
2022/11/22 09:25:58;;;;;;;35.27;18.77;;;;;;;2.92;97.32;100010.84;125133;1105;102828;-75
2022/11/22 09:28:31;;;;;;;33.37;17.30;;;;;;;3.13;96.89;100014.69;125446;1105;103937;-75
2022/11/22 09:31:04;;;;;;;31.70;17.03;;;;;;;3.25;96.80;100019.66;125428;1105;103794;-76
2022/11/22 09:33:37;;;;;;;33.20;18.03;;;;;;;3.36;96.97;100030.65;125483;1105;103096;-75
2022/11/22 09:36:11;;;;;;;34.47;18.87;;;;;;;3.39;96.21;100023.04;125953;1104;102752;-76
2022/11/22 09:38:45;;;;;;;38.45;18.42;;;;;;;3.46;96.66;100019.08;125885;1104;102581;-77
2022/11/22 09:41:43;;;;;;;32.67;17.67;;;;;;;3.50;96.73;100010.67;125780;1105;103027;-75
2022/11/22 09:44:22;;;;;;;30.40;16.33;;;;;;;3.58;97.07;100012.91;126066;1096;103297;-75
2022/11/22 09:47:07;;;;;;;31.63;16.67;;;;;;;3.65;96.24;100015.84;125769;1105;102926;-75
2022/11/22 09:49:49;;;;;;;27.97;14.77;;;;;;;3.67;96.44;100015.09;125874;1105;103048;-75
2022/11/22 09:52:34;;;;;;;31.10;15.23;;;;;;;3.66;96.25;100015.01;125705;1105;118867;-75
2022/11/22 09:55:17;;;;;;;27.37;14.80;;;;;;;3.69;96.42;100012.59;125655;1105;102898;-75
2022/11/22 09:58:03;;;;;;;30.23;14.70;;;;;;;3.68;96.76;100016.89;125693;1105;102821;-77
2022/11/22 10:00:36;;;;;;;28.03;15.10;;;;;;;3.66;96.65;100015.01;125810;1105;102251;-76
2022/11/22 10:03:21;;;;;;;27.57;14.93;;;;;;;3.65;96.44;100019.31;125804;1105;102605;-75
2022/11/22 10:06:14;;;;;;;29.13;15.60;;;;;;;3.67;96.78;100024.59;125742;1105;102591;-76
2022/11/22 10:08:54;;;;;;;26.77;14.60;;;;;;;3.73;96.71;100019.74;125733;1105;102971;-75
2022/11/22 10:11:35;;;;;;;29.07;14.73;;;;;;;3.78;96.75;100026.95;125605;1105;102432;-76
2022/11/22 10:14:15;;;;;;;28.20;15.37;;;;;;;3.82;97.07;100021.93;125714;1106;102587;-76
2022/11/22 10:16:53;;;;;;;26.43;13.97;;;;;;;3.85;95.92;100020.42;125477;1105;102786;-76
2022/11/22 10:19:32;;;;;;;30.80;15.30;;;;;;;3.87;96.46;100011.00;125678;1105;102669;-77
2022/11/22 10:22:12;;;;;;;28.30;14.13;;;;;;;3.91;96.71;100009.45;125586;1105;101956;-76
2022/11/22 10:24:47;;;;;;;27.63;13.80;;;;;;;3.98;95.44;100010.70;125655;1105;102340;-77
2022/11/22 10:27:34;;;;;;;26.97;14.47;;;;;;;3.97;95.36;100009.80;125655;1105;102438;-78
2022/11/22 10:30:18;;;;;;;26.17;13.43;;;;;;;4.02;96.44;100010.05;125757;1105;102580;-77
2022/11/22 10:32:58;;;;;;;;;;;;;;;4.06;95.87;100007.69;125848;1105;102544;-76
2022/11/22 10:35:50;;;;;;;25.97;14.03;;;;;;;4.10;95.91;100008.77;125819;1104;102775;-76
2022/11/22 10:38:53;;;;;;;26.90;14.13;;;;;;;4.15;95.90;100007.30;125832;1105;101774;-75
2022/11/22 10:41:39;;;;;;;26.77;14.10;;;;;;;4.21;95.85;100010.23;125707;1104;102896;-76
2022/11/22 10:44:22;;;;;;;28.10;14.43;;;;;;;4.28;96.21;99999.33;125736;1105;103190;-77
2022/11/22 10:47:05;;;;;;;26.70;14.20;;;;;;;4.32;95.77;100006.48;125733;1105;101978;-76
2022/11/22 10:49:58;;;;;;;25.97;14.07;;;;;;;4.36;95.90;100015.33;125760;1105;103038;-75
2022/11/22 10:52:40;;;;;;;26.57;14.73;;;;;;;4.42;95.74;100019.96;125802;1105;102645;-76
2022/11/22 10:55:28;;;;;;;27.23;15.00;;;;;;;4.49;95.82;100016.88;125832;1104;102723;-77
2022/11/22 10:58:07;;;;;;;28.87;15.27;;;;;;;4.55;95.79;100024.08;125797;1105;101618;-75
2022/11/22 11:00:44;;;;;;;28.43;14.83;;;;;;;4.56;95.66;100025.88;125781;1105;102747;-76
2022/11/22 11:03:26;;;;;;;26.57;14.00;;;;;;;4.51;95.47;100023.05;125735;1105;101863;-75
2022/11/22 11:06:21;;;;;;;26.57;14.70;;;;;;;4.53;96.05;100024.00;125707;1105;102281;-76
2022/11/22 11:14:25;;;;;;;23.40;12.13;;;;;;;4.81;96.36;100025.44;125854;1106;118734;-77
2022/11/22 11:17:01;;;;;;;22.07;11.87;;;;;;;4.90;96.10;100015.50;125805;1105;102636;-76
2022/11/22 11:19:41;;;;;;;23.30;12.43;;;;;;;4.86;96.26;100031.75;125773;1105;101943;-76
2022/11/22 11:22:22;;;;;;;23.50;11.13;;;;;;;4.84;95.87;100016.08;125783;1105;102155;-76
2022/11/22 11:24:55;;;;;;;25.53;12.03;;;;;;;4.88;96.29;100011.95;125791;1105;102576;-77
2022/11/22 11:27:33;;;;;;;26.53;12.77;;;;;;;4.93;95.48;100013.06;125898;1105;102078;-76
2022/11/22 11:30:11;;;;;;;23.87;12.27;;;;;;;4.96;95.68;100005.41;125817;1104;101990;-75
2022/11/22 11:32:53;;;;;;;25.07;12.83;;;;;;;5.01;95.85;99995.24;125647;1105;101864;-75
2022/11/22 11:35:30;;;;;;;25.47;13.20;;;;;;;5.02;95.21;100005.72;125776;1105;102800;-77
2022/11/22 11:38:38;;;;;;;24.13;12.30;;;;;;;5.01;94.74;100006.53;125739;1105;102377;-77
2022/11/22 11:41:35;;;;;;;25.17;13.23;;;;;;;5.02;94.94;100021.32;125709;1105;104046;-76
2022/11/22 11:44:30;;;;;;;32.80;15.40;;;;;;;5.02;95.54;100021.32;125866;1104;102597;-76
2022/11/22 11:47:04;;;;;;;26.10;12.87;;;;;;;5.00;94.68;100032.45;125876;1104;102100;-76
2022/11/22 11:49:36;;;;;;;27.27;12.60;;;;;;;4.99;95.03;100030.69;125377;1105;102212;-77
2022/11/22 11:52:18;;;;;;;27.50;13.50;;;;;;;5.00;95.47;100030.77;124642;1105;104329;-77
2022/11/22 11:54:55;;;;;;;26.17;13.87;;;;;;;4.98;95.48;100034.09;124356;1105;104674;-76
2022/11/22 11:57:30;;;;;;;26.10;13.80;;;;;;;4.98;95.27;100031.49;124518;1105;102188;-78
2022/11/22 12:00:07;;;;;;;26.33;13.73;;;;;;;4.95;95.47;100047.81;124779;1105;103637;-77
2022/11/22 12:02:45;;;;;;;26.67;13.57;;;;;;;4.96;95.38;100048.73;124633;1105;103330;-77